Sinnamary, French Guiana
Current Conditions -  °F | °C
As of 11:00 PM on Wednesday 22 Oct 2014 (Local Time) from SOCA Reporting Station
Clear Clear  
Wind Chill: 77°   Ceiling: Unl
Heat Index: 78°   Visibility: 6mi
Dew Point: 73°   Wind: 1mph
Humidity: 89%   Direction: 240°WSW
Pressure: 29.91"   Gusts: NA
Location:  5.02°N, 52.95°W
Report Text: SOCA 230200Z AUTO 24001KT 9999 NCD 25/23 Q1013
Loading
Personal Weather Stations






























Interactive Weather Map
Tropical Storm Tracking
New forecast layout! Learn more

10-Day Weather Forecast

Advertisements
Track Severe Weather on mobile